createdAt,value
2023-10-09T00:02:16.298Z,18.58
2023-10-09T00:04:46.668Z,18.83
2023-10-09T00:07:18.551Z,18.63
2023-10-09T00:09:48.621Z,18.67
2023-10-09T00:12:30.400Z,18.95
2023-10-09T00:14:57.832Z,18.92
2023-10-09T00:17:25.635Z,18.81
2023-10-09T00:19:53.402Z,18.40
2023-10-09T00:22:31.271Z,18.46
2023-10-09T00:25:24.141Z,18.29
2023-10-09T00:27:51.064Z,18.52
2023-10-09T00:30:31.155Z,18.32
2023-10-09T00:33:06.153Z,18.60
2023-10-09T00:35:45.171Z,18.38
2023-10-09T00:38:21.044Z,18.13
2023-10-09T00:40:57.457Z,17.76
2023-10-09T00:43:31.067Z,17.46
2023-10-09T00:46:04.139Z,17.02
2023-10-09T00:48:32.524Z,16.77
2023-10-09T00:51:01.657Z,16.87
2023-10-09T00:53:33.889Z,17.08
2023-10-09T00:56:06.549Z,17.01
2023-10-09T00:58:37.103Z,16.89
2023-10-09T01:01:05.969Z,16.48
2023-10-09T01:03:35.104Z,16.85
2023-10-09T01:06:12.832Z,17.03
2023-10-09T01:08:41.324Z,17.06
2023-10-09T01:11:11.327Z,17.06
2023-10-09T01:14:02.422Z,17.03
2023-10-09T01:16:32.579Z,16.41
2023-10-09T01:18:59.873Z,16.38
2023-10-09T01:21:28.433Z,16.80
2023-10-09T01:24:05.683Z,16.51
2023-10-09T01:26:47.826Z,16.45
2023-10-09T01:29:20.598Z,16.98
2023-10-09T01:31:52.674Z,16.76
2023-10-09T01:34:26.263Z,17.19
2023-10-09T01:36:57.230Z,17.25
2023-10-09T01:39:25.391Z,17.35
2023-10-09T01:42:11.106Z,16.99
2023-10-09T01:44:44.520Z,17.16
2023-10-09T01:47:22.741Z,16.75
2023-10-09T01:49:54.649Z,16.99
2023-10-09T01:52:21.893Z,16.46
2023-10-09T01:54:52.767Z,17.06
2023-10-09T01:57:24.463Z,16.99
2023-10-09T01:59:54.755Z,17.06
2023-10-09T02:02:22.777Z,17.10
2023-10-09T02:04:49.717Z,16.80
2023-10-09T02:07:23.810Z,16.65
2023-10-09T02:09:50.671Z,16.56
2023-10-09T02:12:17.546Z,16.41
2023-10-09T02:14:45.397Z,16.49
2023-10-09T02:17:30.739Z,16.58
2023-10-09T02:19:59.136Z,16.65
2023-10-09T02:22:27.902Z,16.46
2023-10-09T02:25:00.863Z,16.48
2023-10-09T02:27:46.166Z,16.93
2023-10-09T02:30:28.886Z,17.08
2023-10-09T02:33:07.662Z,17.12
2023-10-09T02:35:43.840Z,17.11
2023-10-09T02:38:15.917Z,16.98
2023-10-09T02:41:02.986Z,17.13
2023-10-09T02:43:35.378Z,17.11
2023-10-09T02:46:15.211Z,17.20
2023-10-09T02:48:46.627Z,16.90
2023-10-09T02:51:23.342Z,16.95
2023-10-09T02:53:51.284Z,16.96
2023-10-09T02:56:26.793Z,16.79
2023-10-09T02:58:57.190Z,16.61
2023-10-09T03:01:24.048Z,16.20
2023-10-09T03:03:51.298Z,15.86
2023-10-09T03:06:26.355Z,15.66
2023-10-09T03:08:55.980Z,15.61
2023-10-09T03:11:23.119Z,15.56
2023-10-09T03:13:50.334Z,15.76
2023-10-09T03:16:18.090Z,15.77
2023-10-09T03:18:54.245Z,15.85
2023-10-09T03:21:21.484Z,15.97
2023-10-09T03:23:52.720Z,15.85
2023-10-09T03:26:22.201Z,15.65
2023-10-09T03:28:50.557Z,15.50
2023-10-09T03:31:17.585Z,15.45
2023-10-09T03:33:44.797Z,15.37
2023-10-09T03:36:11.698Z,15.30
2023-10-09T03:38:41.715Z,15.62
2023-10-09T03:41:14.876Z,15.76
2023-10-09T03:43:43.487Z,16.00
2023-10-09T03:46:22.180Z,16.15
2023-10-09T03:48:50.267Z,16.07
2023-10-09T03:51:23.177Z,16.24
2023-10-09T03:53:52.086Z,16.18
2023-10-09T03:56:19.114Z,16.39
2023-10-09T03:58:47.275Z,16.31
2023-10-09T04:01:38.790Z,16.29
2023-10-09T04:04:08.323Z,16.50
2023-10-09T04:06:35.707Z,16.25
2023-10-09T04:09:18.951Z,16.03
2023-10-09T04:11:47.746Z,16.16
2023-10-09T04:14:25.424Z,16.18
2023-10-09T04:16:52.994Z,16.33
2023-10-09T04:19:25.924Z,16.32
2023-10-09T04:21:56.794Z,16.36
2023-10-09T04:24:24.173Z,16.37
2023-10-09T04:26:58.090Z,16.26
2023-10-09T04:29:28.252Z,16.03
2023-10-09T04:31:57.665Z,15.98
2023-10-09T04:34:25.046Z,16.01
2023-10-09T04:37:01.690Z,15.85
2023-10-09T04:39:32.529Z,15.97
2023-10-09T04:42:19.639Z,15.93
2023-10-09T04:45:05.379Z,15.94
2023-10-09T04:47:39.537Z,16.06
2023-10-09T04:50:20.104Z,16.10
2023-10-09T04:52:53.246Z,15.90
2023-10-09T04:55:20.658Z,15.88
2023-10-09T04:58:03.150Z,15.69
2023-10-09T05:00:30.362Z,15.59
2023-10-09T05:03:00.579Z,15.87
2023-10-09T05:05:44.799Z,15.80
2023-10-09T05:08:22.188Z,15.64
2023-10-09T05:10:59.419Z,15.76
2023-10-09T05:13:40.906Z,15.86
2023-10-09T05:16:20.340Z,15.85
2023-10-09T05:18:57.703Z,15.93
2023-10-09T05:21:32.081Z,16.16
2023-10-09T05:24:16.082Z,15.93
2023-10-09T05:26:47.639Z,15.88
2023-10-09T05:29:34.033Z,15.99
2023-10-09T05:32:15.294Z,16.03
2023-10-09T05:35:01.842Z,16.02
2023-10-09T05:37:36.259Z,16.07
2023-10-09T05:40:16.894Z,16.05
2023-10-09T05:42:44.922Z,16.09
2023-10-09T05:45:19.408Z,16.11
2023-10-09T05:48:10.075Z,16.06
2023-10-09T05:50:39.041Z,16.17
2023-10-09T05:53:10.863Z,16.12
2023-10-09T05:55:56.270Z,15.73
2023-10-09T05:58:41.885Z,15.79
2023-10-09T06:01:27.574Z,15.86
2023-10-09T06:04:06.072Z,15.81
2023-10-09T06:06:44.306Z,15.83
2023-10-09T06:09:16.085Z,15.91
2023-10-09T06:11:51.046Z,16.02
2023-10-09T06:14:31.175Z,16.01
2023-10-09T06:17:16.922Z,16.06
2023-10-09T06:19:46.617Z,16.05
2023-10-09T06:22:13.594Z,15.88
2023-10-09T06:24:44.442Z,15.76
2023-10-09T06:27:13.010Z,16.04
2023-10-09T06:29:50.544Z,15.83
2023-10-09T06:32:27.642Z,15.65
2023-10-09T06:35:16.211Z,15.95
2023-10-09T06:38:02.372Z,16.09
2023-10-09T06:40:39.920Z,16.10
2023-10-09T06:43:18.395Z,15.95
2023-10-09T06:45:46.000Z,15.97
2023-10-09T06:48:32.597Z,16.04
2023-10-09T06:51:25.938Z,15.81
2023-10-09T06:53:57.475Z,15.89
2023-10-09T06:56:27.838Z,15.88
2023-10-09T06:58:59.013Z,15.86
2023-10-09T07:01:40.966Z,15.79
2023-10-09T07:04:21.260Z,16.06
2023-10-09T07:06:54.340Z,16.08
2023-10-09T07:09:22.115Z,15.92
2023-10-09T07:11:51.432Z,16.06
2023-10-09T07:14:46.674Z,16.10
2023-10-09T07:17:32.432Z,15.91
2023-10-09T07:20:10.894Z,16.22
2023-10-09T07:22:41.058Z,16.09
2023-10-09T07:25:29.219Z,16.15
2023-10-09T07:27:56.824Z,16.16
2023-10-09T07:30:32.903Z,15.97
2023-10-09T07:33:14.318Z,16.08
2023-10-09T07:35:46.510Z,15.92
2023-10-09T07:38:21.879Z,15.83
2023-10-09T07:41:08.330Z,16.11
2023-10-09T07:43:40.361Z,16.16
2023-10-09T07:46:27.046Z,15.95
2023-10-09T07:48:54.832Z,15.82
2023-10-09T07:51:31.907Z,15.58
2023-10-09T07:54:23.653Z,15.69
2023-10-09T07:56:54.664Z,15.87
2023-10-09T07:59:25.136Z,15.86
2023-10-09T08:02:00.336Z,15.75
2023-10-09T08:04:41.053Z,15.75
2023-10-09T08:08:06.755Z,15.98
2023-10-09T08:10:15.627Z,15.99
2023-10-09T08:12:50.096Z,16.03
2023-10-09T08:15:21.188Z,16.09
2023-10-09T08:18:26.105Z,16.02
2023-10-09T08:20:59.380Z,15.92
2023-10-09T08:23:49.548Z,15.80
2023-10-09T08:26:30.461Z,15.77
2023-10-09T08:29:16.085Z,15.70
2023-10-09T08:31:58.191Z,15.78
2023-10-09T08:36:58.458Z,15.41
2023-10-09T08:39:31.013Z,15.57
2023-10-09T08:42:03.806Z,15.68
2023-10-09T08:44:34.110Z,15.61
2023-10-09T08:47:01.387Z,15.72
2023-10-09T08:49:29.205Z,15.63
2023-10-09T08:51:57.059Z,15.49
2023-10-09T08:54:24.265Z,15.72
2023-10-09T08:56:51.740Z,15.55
2023-10-09T08:59:20.464Z,15.54
2023-10-09T09:01:53.431Z,15.52
2023-10-09T09:04:42.654Z,15.53
2023-10-09T09:07:40.558Z,15.71
2023-10-09T09:10:22.560Z,15.63
2023-10-09T09:13:01.990Z,15.50
2023-10-09T09:15:29.741Z,15.68
2023-10-09T09:18:13.032Z,15.84
2023-10-09T09:20:46.722Z,15.61
2023-10-09T09:23:14.643Z,15.71
2023-10-09T09:25:46.954Z,15.65
2023-10-09T09:28:14.528Z,15.78
2023-10-09T09:30:42.353Z,15.57
2023-10-09T09:33:21.959Z,15.82
2023-10-09T09:36:03.755Z,16.00
2023-10-09T09:38:49.157Z,16.34
2023-10-09T09:41:25.644Z,16.21
2023-10-09T09:43:57.981Z,16.30
2023-10-09T09:46:34.642Z,16.49
2023-10-09T09:49:03.318Z,16.69
2023-10-09T09:51:33.950Z,16.75
2023-10-09T09:54:01.063Z,16.99
2023-10-09T09:56:30.114Z,16.68
2023-10-09T09:59:03.464Z,16.82
2023-10-09T10:01:36.341Z,16.77
2023-10-09T10:04:15.365Z,17.07
2023-10-09T10:06:46.496Z,18.34
2023-10-09T10:09:40.439Z,18.50
2023-10-09T10:12:11.400Z,18.54
2023-10-09T10:15:00.376Z,18.79
2023-10-09T10:17:30.649Z,19.49
2023-10-09T10:20:15.832Z,18.98
2023-10-09T10:22:48.553Z,19.73
2023-10-09T10:25:34.317Z,20.10
2023-10-09T10:28:30.326Z,20.41
2023-10-09T10:31:01.507Z,20.52
2023-10-09T10:33:56.161Z,20.91
2023-10-09T10:36:25.883Z,20.30
2023-10-09T10:39:23.130Z,20.36
2023-10-09T10:41:58.849Z,19.85
2023-10-09T10:44:43.197Z,20.01
2023-10-09T10:47:35.539Z,20.17
2023-10-09T10:50:33.231Z,20.26
2023-10-09T10:53:36.363Z,20.60
2023-10-09T10:56:15.968Z,20.78
2023-10-09T10:58:55.217Z,21.10
2023-10-09T11:01:27.261Z,21.02
2023-10-09T11:03:57.505Z,21.31
2023-10-09T11:06:38.844Z,20.41
2023-10-09T11:09:42.957Z,20.81
2023-10-09T11:12:24.228Z,19.96
2023-10-09T11:15:07.035Z,20.44
2023-10-09T11:17:36.793Z,20.51
2023-10-09T11:20:27.775Z,20.41
2023-10-09T11:26:27.432Z,20.98
2023-10-09T11:29:19.855Z,20.63
2023-10-09T11:32:06.511Z,20.44
2023-10-09T11:34:36.037Z,20.08
2023-10-09T11:37:13.392Z,20.50
2023-10-09T11:39:59.002Z,20.93
2023-10-09T11:42:39.593Z,21.20
2023-10-09T11:45:29.877Z,21.08
2023-10-09T11:48:22.756Z,21.59
2023-10-09T11:50:56.538Z,22.05
2023-10-09T11:53:23.663Z,22.38
2023-10-09T11:55:53.586Z,22.43
2023-10-09T11:58:24.722Z,21.85
2023-10-09T12:01:06.314Z,21.59
2023-10-09T12:03:34.227Z,21.18
2023-10-09T12:06:07.037Z,21.33
2023-10-09T12:08:35.355Z,21.62
2023-10-09T12:11:04.658Z,21.90
2023-10-09T12:13:32.529Z,22.31
2023-10-09T12:15:59.482Z,22.46
2023-10-09T12:18:26.745Z,22.93
2023-10-09T12:20:54.276Z,22.81
2023-10-09T12:23:23.037Z,22.53
2023-10-09T12:25:51.371Z,22.61
2023-10-09T12:28:21.678Z,22.99
2023-10-09T12:30:51.920Z,22.67
2023-10-09T12:33:21.259Z,22.28
2023-10-09T12:35:48.717Z,22.19
2023-10-09T12:38:20.345Z,22.51
2023-10-09T12:40:53.685Z,22.50
2023-10-09T12:43:23.981Z,22.41
2023-10-09T12:45:51.001Z,22.39
2023-10-09T12:48:17.920Z,22.33
2023-10-09T12:50:45.720Z,22.61
2023-10-09T12:53:14.288Z,21.99
2023-10-09T12:55:45.087Z,21.01
2023-10-09T12:58:17.052Z,21.36
2023-10-09T13:00:50.842Z,21.61
2023-10-09T13:03:19.011Z,21.84
2023-10-09T13:05:59.407Z,22.05
2023-10-09T13:08:37.178Z,21.76
2023-10-09T13:11:18.050Z,21.90
2023-10-09T13:13:52.964Z,22.30
2023-10-09T13:16:25.617Z,22.00
2023-10-09T13:19:00.601Z,22.01
2023-10-09T13:21:33.405Z,22.53
2023-10-09T13:24:01.567Z,22.96
2023-10-09T13:26:34.191Z,22.67
2023-10-09T13:29:04.852Z,23.14
2023-10-09T13:31:36.260Z,23.16
2023-10-09T13:34:04.298Z,22.71
2023-10-09T13:36:35.422Z,23.01
2023-10-09T13:39:26.389Z,22.43
2023-10-09T13:42:02.655Z,22.35
2023-10-09T13:44:34.166Z,22.72
2023-10-09T13:47:10.465Z,22.82
2023-10-09T13:49:43.328Z,22.76
2023-10-09T13:52:10.806Z,22.53
2023-10-09T13:54:37.755Z,22.68
2023-10-09T13:57:08.949Z,22.86
2023-10-09T13:59:37.333Z,22.81
2023-10-09T14:02:18.100Z,22.78
2023-10-09T14:04:47.433Z,22.31
2023-10-09T14:07:18.232Z,22.50
2023-10-09T14:09:45.812Z,22.68
2023-10-09T14:12:15.637Z,22.60
2023-10-09T14:14:50.843Z,22.66
2023-10-09T14:17:29.992Z,22.39
2023-10-09T14:20:18.326Z,21.89
2023-10-09T14:22:47.413Z,21.70
2023-10-09T14:25:16.819Z,21.82
2023-10-09T14:27:43.828Z,22.12
2023-10-09T14:30:20.127Z,21.78
2023-10-09T14:32:53.091Z,22.04
2023-10-09T14:35:23.072Z,21.98
2023-10-09T14:37:50.223Z,21.94
2023-10-09T14:40:22.682Z,21.29
2023-10-09T14:42:56.026Z,21.02
2023-10-09T14:45:27.544Z,21.07
2023-10-09T14:48:01.338Z,21.31
2023-10-09T14:50:28.591Z,21.29
2023-10-09T14:52:55.475Z,21.10
2023-10-09T14:55:22.871Z,21.24
2023-10-09T14:57:53.694Z,21.46
2023-10-09T15:00:24.889Z,21.11
2023-10-09T15:02:53.700Z,21.32
2023-10-09T15:05:20.824Z,21.18
2023-10-09T15:07:48.065Z,20.88
2023-10-09T15:10:19.709Z,20.73
2023-10-09T15:12:48.372Z,20.55
2023-10-09T15:15:15.779Z,20.33
2023-10-09T15:17:49.466Z,20.27
2023-10-09T15:20:16.977Z,20.28
2023-10-09T15:22:44.848Z,20.19
2023-10-09T15:25:18.773Z,20.03
2023-10-09T15:27:45.845Z,19.87
2023-10-09T15:30:17.951Z,19.78
2023-10-09T15:32:45.549Z,19.53
2023-10-09T15:35:14.340Z,19.44
2023-10-09T15:37:45.243Z,19.43
2023-10-09T15:40:20.056Z,19.33
2023-10-09T15:42:51.467Z,19.84
2023-10-09T15:45:23.236Z,20.09
2023-10-09T15:47:52.589Z,20.18
2023-10-09T15:50:20.493Z,20.27
2023-10-09T15:52:50.530Z,20.19
2023-10-09T15:55:22.030Z,19.68
2023-10-09T15:58:00.297Z,19.67
2023-10-09T16:00:30.563Z,19.35
2023-10-09T16:02:58.598Z,19.17
2023-10-09T16:05:28.503Z,19.10
2023-10-09T16:07:56.645Z,19.08
2023-10-09T16:10:24.360Z,19.00
2023-10-09T16:12:54.178Z,18.92
2023-10-09T16:15:21.774Z,18.78
2023-10-09T16:17:49.414Z,18.58
2023-10-09T16:20:22.901Z,18.58
2023-10-09T16:22:51.036Z,18.83
2023-10-09T16:25:22.118Z,18.51
2023-10-09T16:27:49.223Z,18.76
2023-10-09T16:30:21.438Z,18.64
2023-10-09T16:32:49.228Z,18.66
2023-10-09T16:35:16.390Z,18.67
2023-10-09T16:37:43.347Z,18.65
2023-10-09T16:40:14.130Z,18.61
2023-10-09T16:42:44.204Z,18.48
2023-10-09T16:45:17.278Z,18.43
2023-10-09T16:47:48.181Z,18.28
2023-10-09T16:50:19.112Z,18.21
2023-10-09T16:52:46.179Z,17.99
2023-10-09T16:55:13.307Z,18.06
2023-10-09T16:57:41.986Z,17.90
2023-10-09T17:00:14.439Z,18.03
2023-10-09T17:02:42.140Z,17.87
2023-10-09T17:05:14.017Z,17.83
2023-10-09T17:07:43.584Z,17.89
2023-10-09T17:10:16.188Z,17.97
2023-10-09T17:12:47.720Z,17.90
2023-10-09T17:15:16.386Z,17.97
2023-10-09T17:17:47.007Z,17.79
2023-10-09T17:20:14.557Z,17.83
2023-10-09T17:22:41.812Z,17.73
2023-10-09T17:25:09.099Z,17.70
2023-10-09T17:27:35.943Z,17.67
2023-10-09T17:30:03.712Z,17.58
2023-10-09T17:32:30.768Z,17.57
2023-10-09T17:34:57.742Z,17.73
2023-10-09T17:37:24.697Z,17.79
2023-10-09T17:39:51.516Z,17.53
2023-10-09T17:42:20.770Z,17.40
2023-10-09T17:44:48.171Z,17.09
2023-10-09T17:47:15.925Z,17.32
2023-10-09T17:49:43.022Z,16.92
2023-10-09T17:52:12.827Z,16.93
2023-10-09T17:54:40.543Z,16.95
2023-10-09T17:57:07.421Z,17.00
2023-10-09T17:59:34.535Z,16.72
2023-10-09T18:02:03.620Z,16.53
2023-10-09T18:04:36.505Z,15.97
2023-10-09T18:07:05.567Z,15.79
2023-10-09T18:09:34.113Z,15.99
2023-10-09T18:12:04.436Z,15.98
2023-10-09T18:14:31.581Z,15.32
2023-10-09T18:16:58.713Z,15.49
2023-10-09T18:19:25.713Z,15.42
2023-10-09T18:21:52.652Z,15.75
2023-10-09T18:24:19.526Z,15.66
2023-10-09T18:26:46.780Z,15.78
2023-10-09T18:29:14.690Z,15.97
2023-10-09T18:31:43.042Z,15.78
2023-10-09T18:34:10.387Z,15.58
2023-10-09T18:36:39.906Z,15.58
2023-10-09T18:39:09.516Z,15.65
2023-10-09T18:41:36.743Z,15.77
2023-10-09T18:44:10.923Z,15.72
2023-10-09T18:46:39.099Z,15.91
2023-10-09T18:49:06.121Z,15.91
2023-10-09T18:51:33.613Z,15.85
2023-10-09T18:54:05.539Z,15.73
2023-10-09T18:56:33.816Z,15.69
2023-10-09T18:59:09.994Z,15.65
2023-10-09T19:01:37.745Z,15.58
2023-10-09T19:04:09.616Z,15.45
2023-10-09T19:06:37.806Z,15.61
2023-10-09T19:09:05.989Z,15.41
2023-10-09T19:11:33.952Z,15.52
2023-10-09T19:14:02.006Z,15.36
2023-10-09T19:16:29.171Z,15.45
2023-10-09T19:18:58.291Z,15.49
2023-10-09T19:21:25.532Z,15.37
2023-10-09T19:23:52.419Z,15.23
2023-10-09T19:26:19.431Z,15.44
2023-10-09T19:28:49.222Z,15.37
2023-10-09T19:31:21.668Z,15.50
2023-10-09T19:33:50.174Z,15.50
2023-10-09T19:36:19.849Z,15.59
2023-10-09T19:38:53.438Z,15.52
2023-10-09T19:41:25.030Z,15.44
2023-10-09T19:43:53.450Z,15.46
2023-10-09T19:46:20.623Z,15.00
2023-10-09T19:48:48.819Z,15.20
2023-10-09T19:51:16.956Z,14.90
2023-10-09T19:53:46.812Z,14.66
2023-10-09T19:56:14.025Z,14.68
2023-10-09T19:58:41.958Z,14.57
2023-10-09T20:01:14.716Z,14.66
2023-10-09T20:03:43.587Z,14.51
2023-10-09T20:06:10.737Z,14.47
2023-10-09T20:08:37.927Z,14.65
2023-10-09T20:11:08.985Z,14.54
2023-10-09T20:13:36.104Z,14.69
2023-10-09T20:16:09.670Z,14.54
2023-10-09T20:18:38.032Z,14.45
2023-10-09T20:21:10.943Z,14.22
2023-10-09T20:23:42.290Z,14.58
2023-10-09T20:26:16.107Z,14.76
2023-10-09T20:28:44.110Z,14.67
2023-10-09T20:31:12.389Z,14.54
2023-10-09T20:33:40.605Z,14.70
2023-10-09T20:36:16.924Z,14.82
2023-10-09T20:38:47.810Z,14.73
2023-10-09T20:41:16.578Z,14.63
2023-10-09T20:43:43.566Z,14.52
2023-10-09T20:46:17.012Z,14.55
2023-10-09T20:48:47.794Z,14.46
2023-10-09T20:51:18.818Z,14.07
2023-10-09T20:53:46.588Z,14.04
2023-10-09T20:56:13.794Z,14.45
2023-10-09T20:58:45.082Z,14.48
2023-10-09T21:01:21.585Z,14.53
2023-10-09T21:03:52.716Z,14.66
2023-10-09T21:06:25.501Z,14.41
2023-10-09T21:08:53.019Z,14.50
2023-10-09T21:11:20.418Z,14.19
2023-10-09T21:13:47.757Z,14.12
2023-10-09T21:16:16.755Z,14.25
2023-10-09T21:18:47.654Z,14.47
2023-10-09T21:21:15.778Z,14.45
2023-10-09T21:23:43.856Z,14.38
2023-10-09T21:26:21.854Z,14.21
2023-10-09T21:28:49.508Z,14.00
2023-10-09T21:31:18.674Z,13.91
2023-10-09T21:33:46.862Z,14.01
2023-10-09T21:36:14.217Z,14.16
2023-10-09T21:38:42.030Z,14.21
2023-10-09T21:41:23.047Z,14.29
2023-10-09T21:43:54.910Z,14.40
2023-10-09T21:46:26.450Z,14.48
2023-10-09T21:48:54.457Z,14.58
2023-10-09T21:51:21.543Z,14.27
2023-10-09T21:53:48.486Z,14.22
2023-10-09T21:56:15.910Z,14.28
2023-10-09T21:58:43.474Z,14.13
2023-10-09T22:01:13.111Z,14.13
2023-10-09T22:03:41.853Z,14.04
2023-10-09T22:06:11.509Z,14.25
2023-10-09T22:08:38.879Z,13.87
2023-10-09T22:11:08.674Z,13.82
2023-10-09T22:13:36.143Z,13.90
2023-10-09T22:16:03.085Z,14.02
2023-10-09T22:18:31.419Z,13.87
2023-10-09T22:20:58.673Z,13.68
2023-10-09T22:23:34.040Z,13.61
2023-10-09T22:26:07.490Z,13.72
2023-10-09T22:28:34.792Z,13.50
2023-10-09T22:31:05.093Z,13.34
2023-10-09T22:33:50.776Z,13.56
2023-10-09T22:36:42.411Z,13.63
2023-10-09T22:39:34.378Z,13.61
2023-10-09T22:42:02.261Z,13.66
2023-10-09T22:44:33.795Z,13.71
2023-10-09T22:47:10.670Z,13.89
2023-10-09T22:49:42.799Z,13.98
2023-10-09T22:52:12.759Z,13.93
2023-10-09T22:54:43.421Z,13.93
2023-10-09T22:57:11.155Z,14.03
2023-10-09T22:59:51.764Z,14.18
2023-10-09T23:02:38.201Z,14.04
2023-10-09T23:05:06.676Z,14.17
2023-10-09T23:07:33.838Z,14.10
2023-10-09T23:10:16.296Z,14.15
2023-10-09T23:12:50.326Z,13.95
2023-10-09T23:15:36.107Z,14.04
2023-10-09T23:18:22.065Z,14.06
2023-10-09T23:20:50.005Z,14.19
2023-10-09T23:23:26.245Z,14.02
2023-10-09T23:25:54.480Z,13.88
2023-10-09T23:28:40.259Z,13.94
2023-10-09T23:31:33.881Z,14.01
2023-10-09T23:34:09.212Z,13.96
2023-10-09T23:36:44.357Z,13.76
2023-10-09T23:39:12.198Z,13.61
2023-10-09T23:41:40.737Z,13.72
2023-10-09T23:44:10.524Z,13.91
2023-10-09T23:46:38.445Z,13.99
2023-10-09T23:49:09.190Z,14.13
2023-10-09T23:51:40.334Z,14.23
2023-10-09T23:54:11.859Z,14.23
2023-10-09T23:57:05.828Z,14.24
2023-10-09T23:59:51.497Z,14.27
